Pagrindinis puslapis
METAR-TAF:

METAR-TAF

Oro uostai :

Rijeka, Kroatija

platuma: 45-13N, ilguma: 014-35E, Aukštis: 85 m

Dabartinis oras

Ataskaita buvo paskelbta 23 minutes, ne 04:30 UTC
Vėjas 5 kt iš Rytų/Pietryčių
Temperatūra 14°C
Drėgmė 94%
Slėgis 1011 hPa
Matomumas 10 km arba daugiau
Mažai debesys ne aukštis 3000 ft

METAR: LDRI 220430Z 11005KT 9999 FEW030 14/13 Q1011

Laikas: 06:53 (04:53 UTC)

Prognozė

Ataskaita buvo paskelbta 5 valandos ir 28 minutes, ne 23:25 UTC
Prognozė galioja nuo 22 metu 00 UTC su 23 metu 00 UTC
Vėjas 6 kt iš Pietryčių
Matomumas 10 km arba daugiau
Išsisklaidę debesys ne aukštis 3500 ft
Tapsmas
nuo 22 metu 07 UTC su 22 metu 09 UTC
Vėjas 2 kt nuo kintamojo kryptimis
Tikimybė 30% :
Laikinai
nuo 22 metu 12 UTC su 22 metu 18 UTC
Mažai debesys ne aukštis 3000 ft, Liūtiniai kamuoliniai debesys.
Su prošvaistėmis ne aukštis 4000 ft
perkūnija, lietus,

TAF: LDRI 212325Z 2200/2300 14006KT 9999 SCT035 TX21/2213Z TN15/2203Z BECMG 2207/2209 VRB02KT PROB30 TEMPO 2212/2218 -TSRA FEW030CB BKN040

Orai ataskaitas ir orų prognozės (METAR, TAF).

turimą stotys yra geltonos ir raudonos taškus žemėlapyje.

Perkelti pele per norėdami pamatyti stoties vardą.

Tada spustelėkite, norėdami matyti oro stebėjimo ir prognozės.

Norėdami pakeisti žemėlapį: spustelėkite ant žalios mygtukų su juodo kryžiaus žemyn,; žalią mygtuką su brūkšneliu, jei norite nutolinti; arba žalių rodyklių gretimoms žemėlapius.


METAR-TAF: